sensor_id;sensor_type;location;lat;lon;timestamp;temperature;humidity
774;DHT22;370;48.810;9.150;2023-07-08T00:02:09;21.20;1.00
774;DHT22;370;48.810;9.150;2023-07-08T00:04:37;21.10;1.00
774;DHT22;370;48.810;9.150;2023-07-08T00:07:05;21.00;1.00
774;DHT22;370;48.810;9.150;2023-07-08T00:09:35;21.00;1.00
774;DHT22;370;48.810;9.150;2023-07-08T00:12:07;20.90;1.00
774;DHT22;370;48.810;9.150;2023-07-08T00:14:34;20.90;1.00
774;DHT22;370;48.810;9.150;2023-07-08T00:20:31;20.80;1.00
774;DHT22;370;48.810;9.150;2023-07-08T00:23:00;20.80;1.00
774;DHT22;370;48.810;9.150;2023-07-08T00:25:27;20.70;1.00
774;DHT22;370;48.810;9.150;2023-07-08T00:27:53;20.70;1.00
774;DHT22;370;48.810;9.150;2023-07-08T00:30:22;20.70;1.00
774;DHT22;370;48.810;9.150;2023-07-08T00:32:50;20.60;1.00
774;DHT22;370;48.810;9.150;2023-07-08T00:35:20;20.60;1.00
774;DHT22;370;48.810;9.150;2023-07-08T00:37:47;20.50;1.00
774;DHT22;370;48.810;9.150;2023-07-08T00:40:18;20.50;1.00
774;DHT22;370;48.810;9.150;2023-07-08T00:42:45;20.50;1.00
774;DHT22;370;48.810;9.150;2023-07-08T00:45:20;20.50;1.00
774;DHT22;370;48.810;9.150;2023-07-08T00:47:51;20.40;1.00
774;DHT22;370;48.810;9.150;2023-07-08T00:50:19;20.30;1.00
774;DHT22;370;48.810;9.150;2023-07-08T00:52:45;20.30;1.00
774;DHT22;370;48.810;9.150;2023-07-08T00:55:13;20.30;1.00
774;DHT22;370;48.810;9.150;2023-07-08T00:57:44;20.20;1.00
774;DHT22;370;48.810;9.150;2023-07-08T01:00:14;20.20;1.00
774;DHT22;370;48.810;9.150;2023-07-08T01:02:45;20.20;1.00
774;DHT22;370;48.810;9.150;2023-07-08T01:05:16;20.10;1.00
774;DHT22;370;48.810;9.150;2023-07-08T01:07:47;20.00;1.00
774;DHT22;370;48.810;9.150;2023-07-08T01:10:22;20.00;1.00
774;DHT22;370;48.810;9.150;2023-07-08T01:12:55;20.00;1.00
774;DHT22;370;48.810;9.150;2023-07-08T01:15:27;20.00;1.00
774;DHT22;370;48.810;9.150;2023-07-08T01:17:56;20.00;1.00
774;DHT22;370;48.810;9.150;2023-07-08T01:20:23;19.90;1.00
774;DHT22;370;48.810;9.150;2023-07-08T01:22:52;19.80;1.00
774;DHT22;370;48.810;9.150;2023-07-08T01:25:19;19.80;1.00
774;DHT22;370;48.810;9.150;2023-07-08T01:27:51;19.70;1.00
774;DHT22;370;48.810;9.150;2023-07-08T01:30:18;19.70;1.00
774;DHT22;370;48.810;9.150;2023-07-08T01:32:47;19.60;1.00
774;DHT22;370;48.810;9.150;2023-07-08T01:35:15;19.60;1.00
774;DHT22;370;48.810;9.150;2023-07-08T01:37:46;19.60;1.00
774;DHT22;370;48.810;9.150;2023-07-08T01:40:27;19.50;1.00
774;DHT22;370;48.810;9.150;2023-07-08T01:42:54;19.40;1.00
774;DHT22;370;48.810;9.150;2023-07-08T01:45:23;19.40;1.00
774;DHT22;370;48.810;9.150;2023-07-08T01:47:52;19.40;1.00
774;DHT22;370;48.810;9.150;2023-07-08T01:50:20;19.40;1.00
774;DHT22;370;48.810;9.150;2023-07-08T01:52:48;19.20;1.00
774;DHT22;370;48.810;9.150;2023-07-08T01:55:22;19.10;1.00
774;DHT22;370;48.810;9.150;2023-07-08T01:57:51;19.10;1.00
774;DHT22;370;48.810;9.150;2023-07-08T02:00:18;19.00;1.00
774;DHT22;370;48.810;9.150;2023-07-08T02:02:45;19.00;1.00
774;DHT22;370;48.810;9.150;2023-07-08T02:05:12;19.10;1.00
774;DHT22;370;48.810;9.150;2023-07-08T02:07:38;19.00;1.00
774;DHT22;370;48.810;9.150;2023-07-08T02:10:06;18.90;1.00
774;DHT22;370;48.810;9.150;2023-07-08T02:12:34;18.80;1.00
774;DHT22;370;48.810;9.150;2023-07-08T02:15:01;18.80;1.00
774;DHT22;370;48.810;9.150;2023-07-08T02:17:28;18.80;1.00
774;DHT22;370;48.810;9.150;2023-07-08T02:19:55;18.70;1.00
774;DHT22;370;48.810;9.150;2023-07-08T02:22:22;18.70;1.00
774;DHT22;370;48.810;9.150;2023-07-08T02:24:49;18.70;1.00
774;DHT22;370;48.810;9.150;2023-07-08T02:27:15;18.70;1.00
774;DHT22;370;48.810;9.150;2023-07-08T02:29:43;18.60;1.00
774;DHT22;370;48.810;9.150;2023-07-08T02:32:10;18.60;1.00
774;DHT22;370;48.810;9.150;2023-07-08T02:34:37;18.60;1.00
774;DHT22;370;48.810;9.150;2023-07-08T02:37:03;18.70;1.00
774;DHT22;370;48.810;9.150;2023-07-08T02:39:30;18.70;1.00
774;DHT22;370;48.810;9.150;2023-07-08T02:41:57;18.70;1.00
774;DHT22;370;48.810;9.150;2023-07-08T02:44:24;18.70;1.00
774;DHT22;370;48.810;9.150;2023-07-08T02:46:53;18.90;1.00
774;DHT22;370;48.810;9.150;2023-07-08T02:49:20;18.90;1.00
774;DHT22;370;48.810;9.150;2023-07-08T02:51:46;18.90;1.00
774;DHT22;370;48.810;9.150;2023-07-08T02:54:13;18.90;1.00
774;DHT22;370;48.810;9.150;2023-07-08T02:56:40;19.00;1.00
774;DHT22;370;48.810;9.150;2023-07-08T02:59:06;19.10;1.00
774;DHT22;370;48.810;9.150;2023-07-08T03:01:33;19.10;1.00
774;DHT22;370;48.810;9.150;2023-07-08T03:04:08;19.20;1.00
774;DHT22;370;48.810;9.150;2023-07-08T03:06:38;19.30;1.00
774;DHT22;370;48.810;9.150;2023-07-08T03:09:05;19.30;1.00
774;DHT22;370;48.810;9.150;2023-07-08T03:11:32;19.30;1.00
774;DHT22;370;48.810;9.150;2023-07-08T03:13:58;19.20;1.00
774;DHT22;370;48.810;9.150;2023-07-08T03:16:25;19.10;1.00
774;DHT22;370;48.810;9.150;2023-07-08T03:18:52;19.10;1.00
774;DHT22;370;48.810;9.150;2023-07-08T03:21:20;19.10;1.00
774;DHT22;370;48.810;9.150;2023-07-08T03:23:48;19.10;1.00
774;DHT22;370;48.810;9.150;2023-07-08T03:26:16;19.00;1.00
774;DHT22;370;48.810;9.150;2023-07-08T03:28:43;18.90;1.00
774;DHT22;370;48.810;9.150;2023-07-08T03:31:10;18.90;1.00
774;DHT22;370;48.810;9.150;2023-07-08T03:33:37;18.90;1.00
774;DHT22;370;48.810;9.150;2023-07-08T03:36:11;19.00;1.00
774;DHT22;370;48.810;9.150;2023-07-08T03:38:39;18.90;1.00
774;DHT22;370;48.810;9.150;2023-07-08T03:41:06;18.90;1.00
774;DHT22;370;48.810;9.150;2023-07-08T03:43:33;19.00;1.00
774;DHT22;370;48.810;9.150;2023-07-08T03:45:59;19.00;1.00
774;DHT22;370;48.810;9.150;2023-07-08T03:48:26;19.00;1.00
774;DHT22;370;48.810;9.150;2023-07-08T03:50:53;18.90;1.00
774;DHT22;370;48.810;9.150;2023-07-08T03:53:19;18.80;1.00
774;DHT22;370;48.810;9.150;2023-07-08T03:55:47;18.80;1.00
774;DHT22;370;48.810;9.150;2023-07-08T03:58:14;18.80;1.00
774;DHT22;370;48.810;9.150;2023-07-08T04:00:41;18.90;1.00
774;DHT22;370;48.810;9.150;2023-07-08T04:03:10;19.00;1.00
774;DHT22;370;48.810;9.150;2023-07-08T04:05:37;19.00;1.00
774;DHT22;370;48.810;9.150;2023-07-08T04:08:04;18.90;1.00
774;DHT22;370;48.810;9.150;2023-07-08T04:10:31;18.90;1.00
774;DHT22;370;48.810;9.150;2023-07-08T04:12:59;19.00;1.00
774;DHT22;370;48.810;9.150;2023-07-08T04:15:25;19.20;1.00
774;DHT22;370;48.810;9.150;2023-07-08T04:17:53;19.20;1.00
774;DHT22;370;48.810;9.150;2023-07-08T04:20:21;19.30;1.00
774;DHT22;370;48.810;9.150;2023-07-08T04:22:48;19.40;1.00
774;DHT22;370;48.810;9.150;2023-07-08T04:25:15;19.40;1.00
774;DHT22;370;48.810;9.150;2023-07-08T04:27:42;19.60;1.00
774;DHT22;370;48.810;9.150;2023-07-08T04:30:18;19.70;1.00
774;DHT22;370;48.810;9.150;2023-07-08T04:32:46;19.90;1.00
774;DHT22;370;48.810;9.150;2023-07-08T04:35:13;20.00;1.00
774;DHT22;370;48.810;9.150;2023-07-08T04:37:40;20.20;1.00
774;DHT22;370;48.810;9.150;2023-07-08T04:40:16;20.40;1.00
774;DHT22;370;48.810;9.150;2023-07-08T04:42:44;20.70;1.00
774;DHT22;370;48.810;9.150;2023-07-08T04:45:15;20.90;1.00
774;DHT22;370;48.810;9.150;2023-07-08T04:47:42;21.20;1.00
774;DHT22;370;48.810;9.150;2023-07-08T04:50:10;21.40;1.00
774;DHT22;370;48.810;9.150;2023-07-08T04:52:36;21.60;1.00
774;DHT22;370;48.810;9.150;2023-07-08T04:55:03;21.80;1.00
774;DHT22;370;48.810;9.150;2023-07-08T04:57:30;22.00;1.00
774;DHT22;370;48.810;9.150;2023-07-08T04:59:57;22.00;1.00
774;DHT22;370;48.810;9.150;2023-07-08T05:02:25;22.10;1.00
774;DHT22;370;48.810;9.150;2023-07-08T05:04:52;22.00;1.00
774;DHT22;370;48.810;9.150;2023-07-08T05:07:18;21.90;1.00
774;DHT22;370;48.810;9.150;2023-07-08T05:09:45;21.90;1.00
774;DHT22;370;48.810;9.150;2023-07-08T05:12:11;22.00;1.00
774;DHT22;370;48.810;9.150;2023-07-08T05:14:38;22.20;1.00
774;DHT22;370;48.810;9.150;2023-07-08T05:17:05;22.50;1.00
774;DHT22;370;48.810;9.150;2023-07-08T05:19:33;22.70;1.00
774;DHT22;370;48.810;9.150;2023-07-08T05:22:00;23.00;1.00
774;DHT22;370;48.810;9.150;2023-07-08T05:24:27;23.20;1.00
774;DHT22;370;48.810;9.150;2023-07-08T05:26:53;23.50;1.00
774;DHT22;370;48.810;9.150;2023-07-08T05:29:20;23.90;1.00
774;DHT22;370;48.810;9.150;2023-07-08T05:31:47;24.40;1.00
774;DHT22;370;48.810;9.150;2023-07-08T05:34:14;24.90;1.00
774;DHT22;370;48.810;9.150;2023-07-08T05:36:42;24.90;1.00
774;DHT22;370;48.810;9.150;2023-07-08T05:39:09;25.10;1.00
774;DHT22;370;48.810;9.150;2023-07-08T05:41:36;25.20;1.00
774;DHT22;370;48.810;9.150;2023-07-08T05:44:03;25.50;1.00
774;DHT22;370;48.810;9.150;2023-07-08T05:46:29;25.60;1.00
774;DHT22;370;48.810;9.150;2023-07-08T05:48:56;25.70;1.00
774;DHT22;370;48.810;9.150;2023-07-08T05:51:23;25.90;1.00
774;DHT22;370;48.810;9.150;2023-07-08T05:53:51;25.90;1.00
774;DHT22;370;48.810;9.150;2023-07-08T05:56:18;26.00;1.00
774;DHT22;370;48.810;9.150;2023-07-08T05:58:44;26.00;1.00
774;DHT22;370;48.810;9.150;2023-07-08T06:01:11;26.20;1.00
774;DHT22;370;48.810;9.150;2023-07-08T06:03:38;26.50;1.00
774;DHT22;370;48.810;9.150;2023-07-08T06:06:04;26.50;1.00
774;DHT22;370;48.810;9.150;2023-07-08T06:08:31;26.30;1.00
774;DHT22;370;48.810;9.150;2023-07-08T06:10:59;26.30;1.00
774;DHT22;370;48.810;9.150;2023-07-08T06:13:26;26.50;1.00
774;DHT22;370;48.810;9.150;2023-07-08T06:15:53;26.40;1.00
774;DHT22;370;48.810;9.150;2023-07-08T06:18:19;26.50;1.00
774;DHT22;370;48.810;9.150;2023-07-08T06:20:53;26.70;1.00
774;DHT22;370;48.810;9.150;2023-07-08T06:23:20;26.70;1.00
774;DHT22;370;48.810;9.150;2023-07-08T06:25:46;26.90;1.00
774;DHT22;370;48.810;9.150;2023-07-08T06:28:14;27.40;1.00
774;DHT22;370;48.810;9.150;2023-07-08T06:30:41;27.80;1.00
774;DHT22;370;48.810;9.150;2023-07-08T06:33:08;28.10;1.00
774;DHT22;370;48.810;9.150;2023-07-08T06:35:36;28.20;1.00
774;DHT22;370;48.810;9.150;2023-07-08T06:38:03;28.30;1.00
774;DHT22;370;48.810;9.150;2023-07-08T06:40:30;28.50;1.00
774;DHT22;370;48.810;9.150;2023-07-08T06:42:56;28.60;1.00
774;DHT22;370;48.810;9.150;2023-07-08T06:45:24;28.70;1.00
774;DHT22;370;48.810;9.150;2023-07-08T06:47:51;28.60;1.00
774;DHT22;370;48.810;9.150;2023-07-08T06:50:18;28.50;1.00
774;DHT22;370;48.810;9.150;2023-07-08T06:52:45;28.90;1.00
774;DHT22;370;48.810;9.150;2023-07-08T06:55:11;29.20;1.00
774;DHT22;370;48.810;9.150;2023-07-08T06:57:38;29.70;1.00
774;DHT22;370;48.810;9.150;2023-07-08T07:00:06;30.10;1.00
774;DHT22;370;48.810;9.150;2023-07-08T07:02:34;30.50;1.00
774;DHT22;370;48.810;9.150;2023-07-08T07:05:01;30.50;1.00
774;DHT22;370;48.810;9.150;2023-07-08T07:07:29;30.20;1.00
774;DHT22;370;48.810;9.150;2023-07-08T07:09:56;29.90;1.00
774;DHT22;370;48.810;9.150;2023-07-08T07:12:24;29.50;1.00
774;DHT22;370;48.810;9.150;2023-07-08T07:14:50;29.20;1.00
774;DHT22;370;48.810;9.150;2023-07-08T07:17:18;29.10;1.00
774;DHT22;370;48.810;9.150;2023-07-08T07:19:46;28.80;1.00
774;DHT22;370;48.810;9.150;2023-07-08T07:22:13;28.60;1.00
774;DHT22;370;48.810;9.150;2023-07-08T07:28:02;28.40;1.00
774;DHT22;370;48.810;9.150;2023-07-08T07:30:29;28.70;1.00
774;DHT22;370;48.810;9.150;2023-07-08T07:32:58;28.80;1.00
774;DHT22;370;48.810;9.150;2023-07-08T07:35:26;28.90;1.00
774;DHT22;370;48.810;9.150;2023-07-08T07:37:53;28.90;1.00
774;DHT22;370;48.810;9.150;2023-07-08T07:40:20;29.00;1.00
774;DHT22;370;48.810;9.150;2023-07-08T07:42:47;29.20;1.00
774;DHT22;370;48.810;9.150;2023-07-08T07:45:14;29.30;1.00
774;DHT22;370;48.810;9.150;2023-07-08T07:47:40;29.40;1.00
774;DHT22;370;48.810;9.150;2023-07-08T07:50:08;29.50;1.00
774;DHT22;370;48.810;9.150;2023-07-08T07:52:37;29.50;1.00
774;DHT22;370;48.810;9.150;2023-07-08T07:55:04;29.60;1.00
774;DHT22;370;48.810;9.150;2023-07-08T07:57:31;30.30;1.00
774;DHT22;370;48.810;9.150;2023-07-08T07:59:58;31.20;1.00
774;DHT22;370;48.810;9.150;2023-07-08T08:02:24;31.80;1.00
774;DHT22;370;48.810;9.150;2023-07-08T08:04:51;32.50;1.00
774;DHT22;370;48.810;9.150;2023-07-08T08:07:18;33.30;1.00
774;DHT22;370;48.810;9.150;2023-07-08T08:09:46;34.20;1.00
774;DHT22;370;48.810;9.150;2023-07-08T08:12:12;34.70;1.00
774;DHT22;370;48.810;9.150;2023-07-08T08:18:01;36.80;1.00
774;DHT22;370;48.810;9.150;2023-07-08T08:20:29;36.20;1.00
774;DHT22;370;48.810;9.150;2023-07-08T08:22:56;35.60;1.00
774;DHT22;370;48.810;9.150;2023-07-08T08:25:24;35.70;1.00
774;DHT22;370;48.810;9.150;2023-07-08T08:27:51;35.70;1.00
774;DHT22;370;48.810;9.150;2023-07-08T08:30:18;36.10;1.00
774;DHT22;370;48.810;9.150;2023-07-08T08:32:45;36.70;1.00
774;DHT22;370;48.810;9.150;2023-07-08T08:35:11;37.80;1.00
774;DHT22;370;48.810;9.150;2023-07-08T08:37:38;38.30;1.00
774;DHT22;370;48.810;9.150;2023-07-08T08:40:07;38.80;1.00
774;DHT22;370;48.810;9.150;2023-07-08T08:42:42;38.80;1.00
774;DHT22;370;48.810;9.150;2023-07-08T08:45:13;39.40;1.00
774;DHT22;370;48.810;9.150;2023-07-08T08:47:43;38.80;1.00
774;DHT22;370;48.810;9.150;2023-07-08T08:50:23;39.20;1.00
774;DHT22;370;48.810;9.150;2023-07-08T08:52:53;38.10;1.00
774;DHT22;370;48.810;9.150;2023-07-08T08:55:21;37.80;1.00
774;DHT22;370;48.810;9.150;2023-07-08T08:57:57;36.70;1.00
774;DHT22;370;48.810;9.150;2023-07-08T09:00:31;35.80;1.00
774;DHT22;370;48.810;9.150;2023-07-08T09:03:02;35.00;1.00
774;DHT22;370;48.810;9.150;2023-07-08T09:05:30;35.10;1.00
774;DHT22;370;48.810;9.150;2023-07-08T09:08:03;35.30;1.00
774;DHT22;370;48.810;9.150;2023-07-08T09:10:49;37.40;1.00
774;DHT22;370;48.810;9.150;2023-07-08T09:13:25;39.60;1.00
774;DHT22;370;48.810;9.150;2023-07-08T09:15:59;40.50;1.00
774;DHT22;370;48.810;9.150;2023-07-08T09:18:32;41.30;1.00
774;DHT22;370;48.810;9.150;2023-07-08T09:21:05;42.20;1.00
774;DHT22;370;48.810;9.150;2023-07-08T09:23:37;42.90;1.00
774;DHT22;370;48.810;9.150;2023-07-08T09:26:07;41.20;1.00
774;DHT22;370;48.810;9.150;2023-07-08T09:28:38;38.70;1.00
774;DHT22;370;48.810;9.150;2023-07-08T09:31:07;38.10;1.00
774;DHT22;370;48.810;9.150;2023-07-08T09:33:37;38.50;1.00
774;DHT22;370;48.810;9.150;2023-07-08T09:36:16;39.10;1.00
774;DHT22;370;48.810;9.150;2023-07-08T09:38:46;40.20;1.00
774;DHT22;370;48.810;9.150;2023-07-08T09:41:13;40.70;1.00
774;DHT22;370;48.810;9.150;2023-07-08T09:43:44;41.20;1.00
774;DHT22;370;48.810;9.150;2023-07-08T09:46:12;41.80;1.00
774;DHT22;370;48.810;9.150;2023-07-08T09:48:40;41.50;1.00
774;DHT22;370;48.810;9.150;2023-07-08T09:51:08;41.40;1.00
774;DHT22;370;48.810;9.150;2023-07-08T09:53:35;40.50;1.00
774;DHT22;370;48.810;9.150;2023-07-08T09:56:04;41.10;1.00
774;DHT22;370;48.810;9.150;2023-07-08T09:58:32;41.60;1.00
774;DHT22;370;48.810;9.150;2023-07-08T10:01:11;41.70;1.00
774;DHT22;370;48.810;9.150;2023-07-08T10:03:39;41.10;1.00
774;DHT22;370;48.810;9.150;2023-07-08T10:06:25;42.30;1.00
774;DHT22;370;48.810;9.150;2023-07-08T10:08:54;43.20;1.00
774;DHT22;370;48.810;9.150;2023-07-08T10:11:26;44.20;1.00
774;DHT22;370;48.810;9.150;2023-07-08T10:13:54;43.30;1.00
774;DHT22;370;48.810;9.150;2023-07-08T10:16:26;44.20;1.00
774;DHT22;370;48.810;9.150;2023-07-08T10:18:53;42.70;1.00
774;DHT22;370;48.810;9.150;2023-07-08T10:21:38;38.70;1.00
774;DHT22;370;48.810;9.150;2023-07-08T10:24:20;37.60;1.00
774;DHT22;370;48.810;9.150;2023-07-08T10:26:54;36.70;1.00
774;DHT22;370;48.810;9.150;2023-07-08T10:29:26;37.00;1.00
774;DHT22;370;48.810;9.150;2023-07-08T10:32:04;35.60;1.00
774;DHT22;370;48.810;9.150;2023-07-08T10:34:41;34.10;1.00
774;DHT22;370;48.810;9.150;2023-07-08T10:37:18;33.00;1.00
774;DHT22;370;48.810;9.150;2023-07-08T10:39:59;32.80;1.00
774;DHT22;370;48.810;9.150;2023-07-08T10:42:43;34.10;1.00
774;DHT22;370;48.810;9.150;2023-07-08T10:45:18;35.60;1.00
774;DHT22;370;48.810;9.150;2023-07-08T10:47:59;36.70;1.00
774;DHT22;370;48.810;9.150;2023-07-08T10:50:41;37.40;1.00
774;DHT22;370;48.810;9.150;2023-07-08T10:53:31;36.80;1.00
774;DHT22;370;48.810;9.150;2023-07-08T10:56:07;37.00;1.00
774;DHT22;370;48.810;9.150;2023-07-08T10:59:02;36.80;1.00
774;DHT22;370;48.810;9.150;2023-07-08T11:01:37;38.70;1.00
774;DHT22;370;48.810;9.150;2023-07-08T11:04:28;39.70;1.00
774;DHT22;370;48.810;9.150;2023-07-08T11:07:04;41.20;1.00
774;DHT22;370;48.810;9.150;2023-07-08T11:09:39;43.70;1.00
774;DHT22;370;48.810;9.150;2023-07-08T11:12:14;44.40;1.00
774;DHT22;370;48.810;9.150;2023-07-08T11:14:51;44.80;1.00
774;DHT22;370;48.810;9.150;2023-07-08T11:17:22;44.80;1.00
774;DHT22;370;48.810;9.150;2023-07-08T11:19:57;44.80;1.00
774;DHT22;370;48.810;9.150;2023-07-08T11:22:26;45.00;1.00
774;DHT22;370;48.810;9.150;2023-07-08T11:24:55;45.30;1.00
774;DHT22;370;48.810;9.150;2023-07-08T11:27:26;43.90;1.00
774;DHT22;370;48.810;9.150;2023-07-08T11:29:56;41.80;1.00
774;DHT22;370;48.810;9.150;2023-07-08T11:32:26;39.90;1.00
774;DHT22;370;48.810;9.150;2023-07-08T11:34:56;39.20;1.00
774;DHT22;370;48.810;9.150;2023-07-08T11:37:25;38.30;1.00
774;DHT22;370;48.810;9.150;2023-07-08T11:39:54;38.50;1.00
774;DHT22;370;48.810;9.150;2023-07-08T11:42:23;38.80;1.00
774;DHT22;370;48.810;9.150;2023-07-08T11:44:56;38.70;1.00
774;DHT22;370;48.810;9.150;2023-07-08T11:47:29;39.20;1.00
774;DHT22;370;48.810;9.150;2023-07-08T11:50:00;40.10;1.00
774;DHT22;370;48.810;9.150;2023-07-08T11:52:29;39.80;1.00
774;DHT22;370;48.810;9.150;2023-07-08T11:54:59;41.50;1.00
774;DHT22;370;48.810;9.150;2023-07-08T11:57:30;42.10;1.00
774;DHT22;370;48.810;9.150;2023-07-08T12:00:15;43.40;1.00
774;DHT22;370;48.810;9.150;2023-07-08T12:02:53;44.00;1.00
774;DHT22;370;48.810;9.150;2023-07-08T12:05:34;44.30;1.00
774;DHT22;370;48.810;9.150;2023-07-08T12:08:02;44.10;1.00
774;DHT22;370;48.810;9.150;2023-07-08T12:10:33;45.60;1.00
774;DHT22;370;48.810;9.150;2023-07-08T12:13:02;44.80;1.00
774;DHT22;370;48.810;9.150;2023-07-08T12:15:31;45.30;1.00
774;DHT22;370;48.810;9.150;2023-07-08T12:18:00;45.90;1.00
774;DHT22;370;48.810;9.150;2023-07-08T12:20:32;46.80;1.00
774;DHT22;370;48.810;9.150;2023-07-08T12:22:59;48.30;1.00
774;DHT22;370;48.810;9.150;2023-07-08T12:25:30;49.30;1.00
774;DHT22;370;48.810;9.150;2023-07-08T12:27:58;50.30;1.00
774;DHT22;370;48.810;9.150;2023-07-08T12:30:26;50.20;1.00
774;DHT22;370;48.810;9.150;2023-07-08T12:32:54;48.40;1.00
774;DHT22;370;48.810;9.150;2023-07-08T12:35:28;48.60;1.00
774;DHT22;370;48.810;9.150;2023-07-08T12:38:00;49.50;1.00
774;DHT22;370;48.810;9.150;2023-07-08T12:40:28;49.60;1.00
774;DHT22;370;48.810;9.150;2023-07-08T12:42:56;48.80;1.00
774;DHT22;370;48.810;9.150;2023-07-08T12:45:26;49.50;1.00
774;DHT22;370;48.810;9.150;2023-07-08T12:47:53;49.90;1.00
774;DHT22;370;48.810;9.150;2023-07-08T12:50:20;50.20;1.00
774;DHT22;370;48.810;9.150;2023-07-08T12:52:47;50.50;1.00
774;DHT22;370;48.810;9.150;2023-07-08T12:55:16;50.80;1.00
774;DHT22;370;48.810;9.150;2023-07-08T12:57:45;50.50;1.00
774;DHT22;370;48.810;9.150;2023-07-08T13:00:18;49.30;1.00
774;DHT22;370;48.810;9.150;2023-07-08T13:02:50;49.50;1.00
774;DHT22;370;48.810;9.150;2023-07-08T13:05:19;51.50;1.00
774;DHT22;370;48.810;9.150;2023-07-08T13:07:46;52.30;1.00
774;DHT22;370;48.810;9.150;2023-07-08T13:10:19;52.20;1.00
774;DHT22;370;48.810;9.150;2023-07-08T13:12:48;53.20;1.00
774;DHT22;370;48.810;9.150;2023-07-08T13:15:21;55.00;1.00
774;DHT22;370;48.810;9.150;2023-07-08T13:17:48;56.40;1.00
774;DHT22;370;48.810;9.150;2023-07-08T13:20:16;56.10;1.00
774;DHT22;370;48.810;9.150;2023-07-08T13:22:47;55.40;1.00
774;DHT22;370;48.810;9.150;2023-07-08T13:25:18;55.70;1.00
774;DHT22;370;48.810;9.150;2023-07-08T13:27:55;55.40;1.00
774;DHT22;370;48.810;9.150;2023-07-08T13:30:25;54.00;1.00
774;DHT22;370;48.810;9.150;2023-07-08T13:32:52;51.10;1.00
774;DHT22;370;48.810;9.150;2023-07-08T13:35:24;50.60;1.00
774;DHT22;370;48.810;9.150;2023-07-08T13:37:52;51.00;1.00
774;DHT22;370;48.810;9.150;2023-07-08T13:40:20;51.90;1.00
774;DHT22;370;48.810;9.150;2023-07-08T13:42:49;52.30;1.00
774;DHT22;370;48.810;9.150;2023-07-08T13:45:22;51.10;1.00
774;DHT22;370;48.810;9.150;2023-07-08T13:47:58;50.20;1.00
774;DHT22;370;48.810;9.150;2023-07-08T13:50:29;48.80;1.00
774;DHT22;370;48.810;9.150;2023-07-08T13:52:58;46.40;1.00
774;DHT22;370;48.810;9.150;2023-07-08T13:55:26;43.30;1.00
774;DHT22;370;48.810;9.150;2023-07-08T13:57:59;43.10;1.00
774;DHT22;370;48.810;9.150;2023-07-08T14:00:29;41.30;1.00
774;DHT22;370;48.810;9.150;2023-07-08T14:02:57;40.40;1.00
774;DHT22;370;48.810;9.150;2023-07-08T14:05:23;41.50;1.00
774;DHT22;370;48.810;9.150;2023-07-08T14:07:50;42.80;1.00
774;DHT22;370;48.810;9.150;2023-07-08T14:10:17;44.80;1.00
774;DHT22;370;48.810;9.150;2023-07-08T14:12:45;45.80;1.00
774;DHT22;370;48.810;9.150;2023-07-08T14:15:12;46.40;1.00
774;DHT22;370;48.810;9.150;2023-07-08T14:17:39;46.10;1.00
774;DHT22;370;48.810;9.150;2023-07-08T14:20:11;45.40;1.00
774;DHT22;370;48.810;9.150;2023-07-08T14:22:38;45.90;1.00
774;DHT22;370;48.810;9.150;2023-07-08T14:25:08;47.50;1.00
774;DHT22;370;48.810;9.150;2023-07-08T14:27:36;48.30;1.00
774;DHT22;370;48.810;9.150;2023-07-08T14:30:05;48.50;1.00
774;DHT22;370;48.810;9.150;2023-07-08T14:32:32;46.00;1.00
774;DHT22;370;48.810;9.150;2023-07-08T14:35:09;43.10;1.00
774;DHT22;370;48.810;9.150;2023-07-08T14:37:37;40.80;1.00
774;DHT22;370;48.810;9.150;2023-07-08T14:40:18;39.20;1.00
774;DHT22;370;48.810;9.150;2023-07-08T14:42:45;38.20;1.00
774;DHT22;370;48.810;9.150;2023-07-08T14:45:14;37.90;1.00
774;DHT22;370;48.810;9.150;2023-07-08T14:47:40;37.50;1.00
774;DHT22;370;48.810;9.150;2023-07-08T14:50:13;36.60;1.00
774;DHT22;370;48.810;9.150;2023-07-08T14:52:40;36.20;1.00
774;DHT22;370;48.810;9.150;2023-07-08T14:55:08;36.30;1.00
774;DHT22;370;48.810;9.150;2023-07-08T14:57:47;36.30;1.00
774;DHT22;370;48.810;9.150;2023-07-08T15:00:18;36.50;1.00
774;DHT22;370;48.810;9.150;2023-07-08T15:02:47;38.20;1.00
774;DHT22;370;48.810;9.150;2023-07-08T15:05:16;39.70;1.00
774;DHT22;370;48.810;9.150;2023-07-08T15:07:43;39.50;1.00
774;DHT22;370;48.810;9.150;2023-07-08T15:10:11;39.40;1.00
774;DHT22;370;48.810;9.150;2023-07-08T15:12:38;39.70;1.00
774;DHT22;370;48.810;9.150;2023-07-08T15:15:08;41.30;1.00
774;DHT22;370;48.810;9.150;2023-07-08T15:17:41;43.10;1.00
774;DHT22;370;48.810;9.150;2023-07-08T15:20:10;43.70;1.00
774;DHT22;370;48.810;9.150;2023-07-08T15:22:39;42.10;1.00
774;DHT22;370;48.810;9.150;2023-07-08T15:25:07;40.90;1.00
774;DHT22;370;48.810;9.150;2023-07-08T15:27:34;39.70;1.00
774;DHT22;370;48.810;9.150;2023-07-08T15:30:01;38.90;1.00
774;DHT22;370;48.810;9.150;2023-07-08T15:32:28;38.30;1.00
774;DHT22;370;48.810;9.150;2023-07-08T15:34:57;38.10;1.00
774;DHT22;370;48.810;9.150;2023-07-08T15:37:23;38.00;1.00
774;DHT22;370;48.810;9.150;2023-07-08T15:39:50;38.20;1.00
774;DHT22;370;48.810;9.150;2023-07-08T15:42:17;38.40;1.00
774;DHT22;370;48.810;9.150;2023-07-08T15:44:44;38.10;1.00
774;DHT22;370;48.810;9.150;2023-07-08T15:47:17;38.20;1.00
774;DHT22;370;48.810;9.150;2023-07-08T15:49:43;38.80;1.00
774;DHT22;370;48.810;9.150;2023-07-08T15:52:11;39.10;1.00
774;DHT22;370;48.810;9.150;2023-07-08T15:54:38;39.10;1.00
774;DHT22;370;48.810;9.150;2023-07-08T15:57:07;38.70;1.00
774;DHT22;370;48.810;9.150;2023-07-08T15:59:35;38.30;1.00
774;DHT22;370;48.810;9.150;2023-07-08T16:02:10;38.00;1.00
774;DHT22;370;48.810;9.150;2023-07-08T16:04:39;37.70;1.00
774;DHT22;370;48.810;9.150;2023-07-08T16:07:08;37.40;1.00
774;DHT22;370;48.810;9.150;2023-07-08T16:09:37;37.40;1.00
774;DHT22;370;48.810;9.150;2023-07-08T16:12:04;37.10;1.00
774;DHT22;370;48.810;9.150;2023-07-08T16:14:31;36.70;1.00
774;DHT22;370;48.810;9.150;2023-07-08T16:16:58;36.50;1.00
774;DHT22;370;48.810;9.150;2023-07-08T16:19:25;36.50;1.00
774;DHT22;370;48.810;9.150;2023-07-08T16:21:51;36.10;1.00
774;DHT22;370;48.810;9.150;2023-07-08T16:24:18;35.70;1.00
774;DHT22;370;48.810;9.150;2023-07-08T16:26:47;35.30;1.00
774;DHT22;370;48.810;9.150;2023-07-08T16:29:16;35.40;1.00
774;DHT22;370;48.810;9.150;2023-07-08T16:31:43;35.40;1.00
774;DHT22;370;48.810;9.150;2023-07-08T16:34:10;35.30;1.00
774;DHT22;370;48.810;9.150;2023-07-08T16:36:37;35.30;1.00
774;DHT22;370;48.810;9.150;2023-07-08T16:39:05;35.30;1.00
774;DHT22;370;48.810;9.150;2023-07-08T16:41:34;35.30;1.00
774;DHT22;370;48.810;9.150;2023-07-08T16:44:03;35.20;1.00
774;DHT22;370;48.810;9.150;2023-07-08T16:46:35;34.90;1.00
774;DHT22;370;48.810;9.150;2023-07-08T16:49:02;34.60;1.00
774;DHT22;370;48.810;9.150;2023-07-08T16:51:29;34.40;1.00
774;DHT22;370;48.810;9.150;2023-07-08T16:53:58;34.40;1.00
774;DHT22;370;48.810;9.150;2023-07-08T16:56:26;34.40;1.00
774;DHT22;370;48.810;9.150;2023-07-08T16:58:53;34.10;1.00
774;DHT22;370;48.810;9.150;2023-07-08T17:01:23;34.10;1.00
774;DHT22;370;48.810;9.150;2023-07-08T17:03:51;33.90;1.00
774;DHT22;370;48.810;9.150;2023-07-08T17:06:19;34.00;1.00
774;DHT22;370;48.810;9.150;2023-07-08T17:08:46;34.10;1.00
774;DHT22;370;48.810;9.150;2023-07-08T17:11:13;34.10;1.00
774;DHT22;370;48.810;9.150;2023-07-08T17:13:40;34.10;1.00
774;DHT22;370;48.810;9.150;2023-07-08T17:16:10;34.20;1.00